Погода Вилья-Аумадана неделю

Чиуауа, Мексика

13 - 19 июля
  • 13июля
    Сегодня
    +23°
    +37°
    Ясно и безоблачно
    ВремяПогодаТемператураВлажностьДавлениеВетер, м/сВероятность осадков
    00:00Ясно и безоблачно+28°C23 %666 мм4.6 м/с2 %
    03:00Ясно и безоблачно+27°C29 %666 мм5.8 м/с2 %
    06:00Ясно и безоблачно+24°C49 %666 мм5.3 м/с2 %
    09:00Ясно и безоблачно+28°C40 %668 мм3.9 м/с2 %
    12:00Ясно и безоблачно+32°C22 %668 мм3.2 м/с2 %
    15:00Ясно и безоблачно+35°C12 %667 мм3.2 м/с2 %
    18:00Ясно и безоблачно+36°C13 %666 мм5.0 м/с2 %
    21:00Практически безоблачно+31°C24 %666 мм8.7 м/с2 %
  • 14июля
    Воскресенье
    +23°
    +36°
    Ясно и безоблачно
    ВремяПогодаТемператураВлажностьДавлениеВетер, м/сВероятность осадков
    00:00Ясно и безоблачно+27°C40 %667 мм6.4 м/с2 %
    03:00Ясно и безоблачно+26°C53 %667 мм4.9 м/с2 %
    06:00Ясно и безоблачно+23°C63 %666 мм3.7 м/с2 %
    09:00Ясно и безоблачно+27°C51 %668 мм3.9 м/с2 %
    12:00Ясно и безоблачно+32°C29 %668 мм2.5 м/с2 %
    15:00Ясно и безоблачно+35°C20 %667 мм4.1 м/с2 %
    18:00Ясно и безоблачно+35°C20 %665 мм4.3 м/с2 %
    21:00Ясно и безоблачно+31°C25 %665 мм5.0 м/с2 %
  • 15июля
    Понедельник
    +24°
    +39°
    Практически безоблачно
    ВремяПогодаТемператураВлажностьДавлениеВетер, м/сВероятность осадков
    00:00Ясно и безоблачно+28°C39 %665 мм5.7 м/с2 %
    03:00Ясно и безоблачно+26°C53 %665 мм3.7 м/с2 %
    06:00Ясно и безоблачно+24°C63 %665 мм3.0 м/с2 %
    09:00Ясно и безоблачно+28°C47 %666 мм2.4 м/с2 %
    12:00Ясно и безоблачно+32°C29 %666 мм1.4 м/с2 %
    15:00Практически безоблачно+36°C19 %664 мм3.6 м/с2 %
    18:00Ясно и безоблачно+38°C13 %663 мм6.5 м/с2 %
    21:00Ясно и безоблачно+34°C18 %663 мм3.0 м/с3 %
  • 16июля
    Вторник
    +25°
    +38°
    Ясно и безоблачно
    ВремяПогодаТемператураВлажностьДавлениеВетер, м/сВероятность осадков
    00:00Ясно и безоблачно+29°C41 %664 мм7.0 м/с5 %
    03:00Ясно и безоблачно+27°C52 %663 мм3.9 м/с2 %
    06:00Ясно и безоблачно+25°C51 %663 мм3.0 м/с2 %
    09:00Ясно и безоблачно+28°C38 %665 мм1.4 м/с2 %
    12:00Ясно и безоблачно+33°C26 %665 мм3.6 м/с2 %
    15:00Ясно и безоблачно+37°C16 %664 мм4.3 м/с2 %
    18:00Ясно и безоблачно+38°C17 %663 мм5.2 м/с3 %
    21:00Ясно и безоблачно+35°C21 %664 мм6.5 м/с10 %
  • 17июля
    Среда
    +23°
    +37°
    Ясно и безоблачно
    ВремяПогодаТемператураВлажностьДавлениеВетер, м/сВероятность осадков
    00:00Ясно и безоблачно+30°C35 %664 мм5.0 м/с8 %
    03:00Ясно и безоблачно+28°C47 %663 мм2.7 м/с2 %
    06:00Ясно и безоблачно+25°C60 %663 мм3.9 м/с2 %
    09:00Ясно и безоблачно+28°C51 %665 мм2.1 м/с2 %
    12:00Ясно и безоблачно+33°C28 %665 мм3.9 м/с4 %
    15:00Ясно и безоблачно+36°C18 %664 мм5.8 м/с7 %
    18:00Практически безоблачно+36°C20 %663 мм6.2 м/с25 %
    21:00Ясно и безоблачно+31°C32 %665 мм7.2 м/с19 %
Мы используем cookies
Соглашаюсь